Time;durP1;ratioP1;P1;durP2;ratioP2;P2;SDS_P1;SDS_P2;PMS_P1;PMS_P2;Temp;Humidity;BMP_temperature;BMP_pressure;BME280_temperature;BME280_humidity;BME280_pressure;Samples;Min_cycle;Max_cycle;Signal;HPM_P1;HPM_P2
2023/03/28 00:01:23;;;;;;;6.88;2.05;;;5.00;99.90;;;;;;4127426;28;20037;-67
2023/03/28 00:03:26;;;;;;;5.35;1.80;;;5.00;99.90;;;;;;4130714;28;20038;-67
2023/03/28 00:05:26;;;;;;;7.05;1.90;;;5.00;99.90;;;;;;4144534;28;20053;-68
2023/03/28 00:07:28;;;;;;;3.60;1.67;;;5.00;99.90;;;;;;4134277;28;20116;-68
2023/03/28 00:09:30;;;;;;;4.50;1.75;;;5.00;99.90;;;;;;4142437;28;20042;-67
2023/03/28 00:11:31;;;;;;;11.73;2.35;;;5.00;99.90;;;;;;4133353;28;20549;-66
2023/03/28 00:13:32;;;;;;;3.78;1.65;;;5.00;99.90;;;;;;4143079;28;20038;-67
2023/03/28 00:15:34;;;;;;;5.10;1.98;;;5.00;99.90;;;;;;4135352;28;20575;-67
2023/03/28 00:17:34;;;;;;;7.85;1.77;;;5.00;99.90;;;;;;4170354;28;20033;-68
2023/03/28 00:19:39;;;;;;;4.28;1.40;;;5.00;99.90;;;;;;4137344;28;20042;-67
2023/03/28 00:21:45;;;;;;;5.13;1.88;;;5.00;99.90;;;;;;4147425;28;20044;-67
2023/03/28 00:23:51;;;;;;;4.65;1.80;;;5.00;99.90;;;;;;4136800;28;20038;-67
2023/03/28 00:25:51;;;;;;;7.38;1.92;;;5.00;99.90;;;;;;4136249;28;20030;-69
2023/03/28 00:27:52;;;;;;;5.63;2.10;;;4.90;99.90;;;;;;4134669;28;20105;-67
2023/03/28 00:29:52;;;;;;;5.25;1.77;;;4.90;99.90;;;;;;4141579;28;20040;-67
2023/03/28 00:31:53;;;;;;;8.25;2.28;;;4.90;99.90;;;;;;4134479;28;20050;-67
2023/03/28 00:33:55;;;;;;;6.93;1.90;;;4.90;99.90;;;;;;4135872;28;20133;-68
2023/03/28 00:35:55;;;;;;;7.40;2.60;;;4.90;99.90;;;;;;4132610;28;20158;-67
2023/03/28 00:37:57;;;;;;;6.13;2.15;;;4.90;99.90;;;;;;4136765;28;20445;-67
2023/03/28 00:39:58;;;;;;;9.23;2.17;;;4.90;99.90;;;;;;4135945;28;20041;-67
2023/03/28 00:42:00;;;;;;;6.85;2.25;;;4.80;99.90;;;;;;4139855;28;20038;-67
2023/03/28 00:44:01;;;;;;;8.85;1.88;;;4.80;99.90;;;;;;4137037;28;20394;-65
2023/03/28 00:46:06;;;;;;;9.73;2.45;;;4.80;99.90;;;;;;4132518;28;20038;-67
2023/03/28 00:48:12;;;;;;;8.77;2.15;;;4.80;99.90;;;;;;4135352;28;21615;-67
2023/03/28 00:50:30;;;;;;;8.05;2.00;;;4.70;99.90;;;;;;4132906;28;20030;-67
2023/03/28 00:52:38;;;;;;;6.07;1.70;;;4.70;99.90;;;;;;4132028;28;20030;-67
2023/03/28 00:54:39;;;;;;;11.60;2.58;;;4.70;99.90;;;;;;4135527;28;20031;-67
2023/03/28 00:56:44;;;;;;;6.70;1.73;;;4.60;99.90;;;;;;4139470;28;20452;-67
2023/03/28 00:58:46;;;;;;;4.57;1.92;;;4.60;99.90;;;;;;4154793;28;20096;-67
2023/03/28 01:00:48;;;;;;;3.30;1.50;;;4.70;99.90;;;;;;4132862;28;20613;-67
2023/03/28 01:02:53;;;;;;;7.88;2.63;;;4.60;99.90;;;;;;4135144;28;20041;-67
2023/03/28 01:04:58;;;;;;;5.30;2.22;;;4.60;99.90;;;;;;4133764;28;20363;-67
2023/03/28 01:06:59;;;;;;;7.82;2.22;;;4.60;99.90;;;;;;4132134;28;20449;-67
2023/03/28 01:09:03;;;;;;;8.82;2.38;;;4.60;99.90;;;;;;4140270;28;20030;-68
2023/03/28 01:11:05;;;;;;;3.90;1.85;;;4.60;99.90;;;;;;4134266;28;20034;-67
2023/03/28 01:13:06;;;;;;;8.20;1.80;;;4.60;99.90;;;;;;4136631;28;20501;-67
2023/03/28 01:15:07;;;;;;;6.43;2.20;;;4.50;99.90;;;;;;4131858;28;20034;-67
2023/03/28 01:17:09;;;;;;;8.38;2.05;;;4.50;99.90;;;;;;4130886;28;20054;-67
2023/03/28 01:19:34;;;;;;;4.77;1.90;;;4.60;99.90;;;;;;4142894;28;20065;-68
2023/03/28 01:21:53;;;;;;;6.03;1.92;;;4.50;99.90;;;;;;4127111;28;20030;-67
2023/03/28 01:24:00;;;;;;;5.88;2.15;;;4.50;99.90;;;;;;4149073;28;20084;-67
2023/03/28 01:26:31;;;;;;;6.25;2.22;;;4.50;99.90;;;;;;4143577;28;20033;-67
2023/03/28 01:29:13;;;;;;;7.82;2.30;;;4.60;99.90;;;;;;4133051;28;20095;-66
2023/03/28 01:31:28;;;;;;;8.60;1.75;;;4.50;99.90;;;;;;4131072;28;20027;-66
2023/03/28 01:33:44;;;;;;;6.05;2.00;;;4.50;99.90;;;;;;4136289;28;20038;-67
2023/03/28 01:36:27;;;;;;;6.32;2.10;;;4.50;99.90;;;;;;4139988;28;20552;-66
2023/03/28 01:38:38;;;;;;;4.85;1.75;;;4.50;99.90;;;;;;4137104;28;20026;-67
2023/03/28 01:41:03;;;;;;;5.63;2.08;;;4.50;99.90;;;;;;4136207;28;20045;-67
2023/03/28 01:43:12;;;;;;;5.47;1.80;;;4.50;99.90;;;;;;4132592;28;20034;-67
2023/03/28 01:45:19;;;;;;;4.00;1.88;;;4.50;99.90;;;;;;4126334;28;20034;-68
2023/03/28 01:47:34;;;;;;;6.43;1.70;;;4.50;99.90;;;;;;4128851;28;20462;-67
2023/03/28 01:49:45;;;;;;;3.88;1.63;;;4.50;99.90;;;;;;4129366;28;20097;-67
2023/03/28 01:52:12;;;;;;;9.52;1.92;;;4.60;99.90;;;;;;4139353;28;20034;-66
2023/03/28 01:54:18;;;;;;;5.35;1.98;;;4.50;99.90;;;;;;4138827;28;20033;-67
2023/03/28 01:56:29;;;;;;;7.63;2.00;;;4.50;99.90;;;;;;4136168;28;20030;-67
2023/03/28 01:58:40;;;;;;;6.80;2.33;;;4.50;99.90;;;;;;4137033;28;20042;-67
2023/03/28 02:00:44;;;;;;;6.90;1.92;;;4.50;99.90;;;;;;4135796;28;20030;-67
2023/03/28 02:02:53;;;;;;;4.07;1.40;;;4.50;99.90;;;;;;4137422;28;20137;-66
2023/03/28 02:04:57;;;;;;;5.35;2.20;;;4.50;99.90;;;;;;4137220;28;20042;-67
2023/03/28 02:06:58;;;;;;;11.77;2.25;;;4.50;99.90;;;;;;4135801;28;20050;-67
2023/03/28 02:09:00;;;;;;;8.18;1.95;;;4.50;99.90;;;;;;4137928;28;20080;-67
2023/03/28 02:11:01;;;;;;;8.18;1.80;;;4.50;99.90;;;;;;4135723;28;20022;-67
2023/03/28 02:13:21;;;;;;;9.88;2.40;;;4.50;99.90;;;;;;4134380;28;20110;-66
2023/03/28 02:15:25;;;;;;;3.60;1.70;;;4.50;99.90;;;;;;4128002;28;20096;-67
2023/03/28 02:17:27;;;;;;;5.45;1.90;;;4.50;99.90;;;;;;4131561;28;20049;-67
2023/03/28 02:19:29;;;;;;;5.88;2.17;;;4.50;99.90;;;;;;4155099;28;20041;-67
2023/03/28 02:21:44;;;;;;;6.60;2.10;;;4.40;99.90;;;;;;4133295;28;20046;-67
2023/03/28 02:23:48;;;;;;;4.85;1.50;;;4.40;99.90;;;;;;4128803;28;20033;-66
2023/03/28 02:25:49;;;;;;;5.50;1.83;;;4.40;99.90;;;;;;4132463;28;20089;-67
2023/03/28 02:27:53;;;;;;;2.85;1.40;;;4.40;99.90;;;;;;4137036;28;20041;-67
2023/03/28 02:29:53;;;;;;;4.90;1.60;;;4.40;99.90;;;;;;4130368;28;20066;-67
2023/03/28 02:31:54;;;;;;;6.75;2.08;;;4.40;99.90;;;;;;4133842;28;20042;-68
2023/03/28 02:33:55;;;;;;;7.30;1.95;;;4.40;99.90;;;;;;4134507;28;20117;-67
2023/03/28 02:36:10;;;;;;;6.20;1.90;;;4.40;99.90;;;;;;4145443;28;20116;-67
2023/03/28 02:38:50;;;;;;;5.10;1.50;;;4.40;99.90;;;;;;4190724;27;20377;-67
2023/03/28 02:41:10;;;;;;;5.72;1.83;;;4.40;99.90;;;;;;4191981;28;20506;-68
2023/03/28 02:43:30;;;;;;;3.38;1.48;;;4.30;99.90;;;;;;4197749;28;20044;-66
2023/03/28 02:45:42;;;;;;;5.70;1.67;;;4.30;99.90;;;;;;4197790;28;20040;-67
2023/03/28 02:47:47;;;;;;;5.68;1.77;;;4.30;99.90;;;;;;4191693;28;20455;-67
2023/03/28 02:49:53;;;;;;;6.43;2.58;;;4.30;99.90;;;;;;4187894;28;20149;-66
2023/03/28 02:52:02;;;;;;;6.65;2.05;;;4.30;99.90;;;;;;4193543;28;20036;-66
2023/03/28 02:54:52;;;;;;;5.88;2.28;;;4.20;99.90;;;;;;4197157;28;20025;-65
2023/03/28 02:57:09;;;;;;;9.68;2.58;;;4.20;99.90;;;;;;4152865;28;21487;-66
2023/03/28 02:59:27;;;;;;;7.38;1.88;;;4.10;99.90;;;;;;4193776;28;20048;-66
2023/03/28 03:01:28;;;;;;;6.28;1.92;;;4.10;99.90;;;;;;4179756;28;20112;-67
2023/03/28 03:03:30;;;;;;;6.03;2.17;;;4.00;99.90;;;;;;4199373;28;20036;-67
2023/03/28 03:05:30;;;;;;;3.38;1.65;;;4.10;99.90;;;;;;4199945;28;20033;-68
2023/03/28 03:07:31;;;;;;;9.82;2.40;;;4.10;99.90;;;;;;4200168;28;20040;-67
2023/03/28 03:09:32;;;;;;;3.95;1.55;;;4.10;99.90;;;;;;4197031;28;20037;-67
2023/03/28 03:11:32;;;;;;;5.15;1.67;;;4.00;99.90;;;;;;4195018;28;20029;-67
2023/03/28 03:13:33;;;;;;;5.10;1.67;;;4.00;99.90;;;;;;4195258;28;20032;-64
2023/03/28 03:15:34;;;;;;;5.20;1.85;;;4.10;99.90;;;;;;4197124;28;20434;-66
2023/03/28 03:17:35;;;;;;;10.25;2.17;;;4.00;99.90;;;;;;4179671;28;20037;-66
2023/03/28 03:19:35;;;;;;;6.93;1.90;;;4.00;99.90;;;;;;4196986;28;20066;-67
2023/03/28 03:21:36;;;;;;;3.85;2.15;;;4.00;99.90;;;;;;4200261;28;20547;-66
2023/03/28 03:23:36;;;;;;;8.25;2.20;;;4.00;99.90;;;;;;4198626;28;20480;-66
2023/03/28 03:25:38;;;;;;;6.75;2.08;;;4.00;99.90;;;;;;4196241;28;20040;-67
2023/03/28 03:27:39;;;;;;;4.32;1.70;;;4.00;99.90;;;;;;4198827;28;20495;-66
2023/03/28 03:29:40;;;;;;;10.05;2.20;;;3.90;99.90;;;;;;4197109;28;20376;-66
2023/03/28 03:31:40;;;;;;;5.72;2.40;;;4.00;99.90;;;;;;4198503;28;20041;-67
2023/03/28 03:33:41;;;;;;;9.15;2.45;;;3.90;99.90;;;;;;4203059;28;20029;-67
2023/03/28 03:35:44;;;;;;;8.23;3.00;;;3.90;99.90;;;;;;4196480;28;20040;-67
2023/03/28 03:37:45;;;;;;;6.00;2.45;;;4.00;99.90;;;;;;4199929;28;20520;-67
2023/03/28 03:39:46;;;;;;;7.05;2.38;;;3.90;99.90;;;;;;4199138;28;20044;-67
2023/03/28 03:41:47;;;;;;;7.93;2.47;;;3.90;99.90;;;;;;4196084;28;20059;-67
2023/03/28 03:43:47;;;;;;;5.55;2.47;;;3.90;99.90;;;;;;4197390;28;20487;-65
2023/03/28 03:45:48;;;;;;;8.23;2.63;;;3.90;99.90;;;;;;4203864;28;20035;-65
2023/03/28 03:47:49;;;;;;;4.22;2.25;;;3.90;99.90;;;;;;4206534;28;20037;-66
2023/03/28 03:49:49;;;;;;;6.97;2.10;;;3.90;99.90;;;;;;4198450;28;20159;-66
2023/03/28 03:51:50;;;;;;;6.50;2.15;;;3.90;99.90;;;;;;4186429;28;20036;-67
2023/03/28 03:53:50;;;;;;;5.40;2.05;;;3.90;99.90;;;;;;4189305;28;20123;-66
2023/03/28 03:55:51;;;;;;;6.75;2.75;;;3.80;99.90;;;;;;4199600;28;20398;-66
2023/03/28 03:57:51;;;;;;;4.63;2.03;;;3.80;99.90;;;;;;4191510;28;20492;-67
2023/03/28 03:59:52;;;;;;;7.88;2.63;;;3.80;99.90;;;;;;4190827;28;20579;-66
2023/03/28 04:01:54;;;;;;;6.85;2.30;;;3.80;99.90;;;;;;4178993;28;20381;-66
2023/03/28 04:03:55;;;;;;;8.95;3.13;;;3.80;99.90;;;;;;4170236;28;20515;-66
2023/03/28 04:05:56;;;;;;;9.02;2.38;;;3.80;99.90;;;;;;4169474;28;20106;-66
2023/03/28 04:07:59;;;;;;;3.45;2.00;;;3.70;99.90;;;;;;4172103;28;20040;-67
2023/03/28 04:09:59;;;;;;;3.45;2.28;;;3.70;99.90;;;;;;4171853;28;20084;-67
2023/03/28 04:12:00;;;;;;;4.95;2.25;;;3.70;99.90;;;;;;4168027;28;20041;-67
2023/03/28 04:14:01;;;;;;;4.97;2.30;;;3.70;99.90;;;;;;4167618;28;20032;-67
2023/03/28 04:16:02;;;;;;;6.13;2.50;;;3.70;99.90;;;;;;4171544;28;20034;-67
2023/03/28 04:18:03;;;;;;;7.72;2.53;;;3.70;99.90;;;;;;4170028;28;20051;-67
2023/03/28 04:20:10;;;;;;;9.57;3.10;;;3.70;99.90;;;;;;4173927;28;20041;-67
2023/03/28 04:22:11;;;;;;;6.22;2.50;;;3.60;99.90;;;;;;4172799;28;20036;-66
2023/03/28 04:24:14;;;;;;;5.70;1.80;;;3.60;99.90;;;;;;4167876;28;20079;-67
2023/03/28 04:26:24;;;;;;;3.25;2.10;;;3.60;99.90;;;;;;4167690;28;20040;-67
2023/03/28 04:28:26;;;;;;;5.80;2.05;;;3.60;99.90;;;;;;4169836;28;20041;-67
2023/03/28 04:30:27;;;;;;;6.60;2.53;;;3.60;99.90;;;;;;4172551;28;20091;-67
2023/03/28 04:32:27;;;;;;;9.68;2.55;;;3.60;99.90;;;;;;4170860;28;20033;-67
2023/03/28 04:34:32;;;;;;;4.85;2.40;;;3.60;99.90;;;;;;4170221;28;20030;-66
2023/03/28 04:36:33;;;;;;;7.57;2.97;;;3.50;99.90;;;;;;4174568;28;20475;-67
2023/03/28 04:38:36;;;;;;;9.48;3.05;;;3.60;99.90;;;;;;4188811;28;20056;-67
2023/03/28 04:40:38;;;;;;;5.25;2.40;;;3.60;99.90;;;;;;4174865;28;20357;-66
2023/03/28 04:42:39;;;;;;;6.50;2.27;;;3.50;99.90;;;;;;4169317;28;20034;-67
2023/03/28 04:44:40;;;;;;;9.45;3.17;;;3.60;99.90;;;;;;4172092;28;20112;-67
2023/03/28 04:46:41;;;;;;;7.05;2.42;;;3.50;99.90;;;;;;4169366;28;20037;-67
2023/03/28 04:48:41;;;;;;;5.15;2.10;;;3.60;99.90;;;;;;4169441;28;20380;-67
2023/03/28 04:50:42;;;;;;;6.72;2.55;;;3.50;99.90;;;;;;4171356;28;20041;-66
2023/03/28 04:52:42;;;;;;;5.65;2.40;;;3.50;99.90;;;;;;4172339;28;20036;-67
2023/03/28 04:54:43;;;;;;;8.02;2.88;;;3.60;99.90;;;;;;4178102;28;20507;-67
2023/03/28 04:56:44;;;;;;;6.78;2.65;;;3.50;99.90;;;;;;4172980;28;20495;-67
2023/03/28 04:58:45;;;;;;;5.93;2.50;;;3.60;99.90;;;;;;4182376;28;20112;-67
2023/03/28 05:00:47;;;;;;;6.43;2.95;;;3.50;99.90;;;;;;4179394;28;20029;-67
2023/03/28 05:02:48;;;;;;;6.03;2.45;;;3.60;99.90;;;;;;4170136;28;20120;-66
2023/03/28 05:04:49;;;;;;;9.13;2.92;;;3.50;99.90;;;;;;4174790;28;20488;-66
2023/03/28 05:06:49;;;;;;;5.90;2.25;;;3.50;99.90;;;;;;4168506;28;20393;-66
2023/03/28 05:08:50;;;;;;;7.35;2.83;;;3.50;99.90;;;;;;4169722;28;20048;-66
2023/03/28 05:10:51;;;;;;;6.63;2.75;;;3.60;99.90;;;;;;4171059;28;20083;-67
2023/03/28 05:12:51;;;;;;;9.30;3.28;;;3.50;99.90;;;;;;4175361;28;20388;-67
2023/03/28 05:14:52;;;;;;;5.22;2.20;;;3.50;99.90;;;;;;4173558;28;20064;-67
2023/03/28 05:16:52;;;;;;;6.65;2.80;;;3.50;99.90;;;;;;4163474;28;20042;-67
2023/03/28 05:18:55;;;;;;;10.25;3.20;;;3.60;99.90;;;;;;4167731;28;20393;-67
2023/03/28 05:20:55;;;;;;;7.20;2.60;;;3.50;99.90;;;;;;4175361;28;21310;-67
2023/03/28 05:22:56;;;;;;;6.55;2.75;;;3.50;99.90;;;;;;4169829;28;20480;-67
2023/03/28 05:24:56;;;;;;;6.25;2.40;;;3.50;99.90;;;;;;4173302;28;20519;-67
2023/03/28 05:26:57;;;;;;;6.30;3.08;;;3.60;99.90;;;;;;4166656;28;20048;-67
2023/03/28 05:28:58;;;;;;;11.38;3.65;;;3.50;99.90;;;;;;4172393;28;20036;-66
2023/03/28 05:30:58;;;;;;;7.95;3.08;;;3.60;99.90;;;;;;4186464;28;20138;-66
2023/03/28 05:32:59;;;;;;;7.13;2.90;;;3.50;99.90;;;;;;4164652;28;20338;-67
2023/03/28 05:35:00;;;;;;;9.00;2.88;;;3.50;99.90;;;;;;4184375;28;20022;-67
2023/03/28 05:37:01;;;;;;;6.80;2.72;;;3.50;99.90;;;;;;4185572;28;20036;-68
2023/03/28 05:39:03;;;;;;;7.40;2.90;;;3.50;99.90;;;;;;4183600;28;20044;-67
2023/03/28 05:41:04;;;;;;;5.43;2.80;;;3.50;99.90;;;;;;4179840;28;20368;-67
2023/03/28 05:43:05;;;;;;;8.55;3.47;;;3.50;99.90;;;;;;4179379;28;20036;-67
2023/03/28 05:45:07;;;;;;;4.90;2.55;;;3.50;99.90;;;;;;4181844;28;20755;-65
2023/03/28 05:47:07;;;;;;;6.35;2.75;;;3.50;99.90;;;;;;4180280;28;20108;-67
2023/03/28 05:49:08;;;;;;;4.95;2.67;;;3.50;99.90;;;;;;4181998;28;22160;-67
2023/03/28 05:51:09;;;;;;;5.30;2.72;;;3.50;99.90;;;;;;4178322;28;20045;-67
2023/03/28 05:53:10;;;;;;;6.32;2.38;;;3.50;99.90;;;;;;4183783;28;20048;-68
2023/03/28 05:55:10;;;;;;;7.85;2.88;;;3.50;99.90;;;;;;4181434;28;20511;-68
2023/03/28 05:57:11;;;;;;;5.53;2.90;;;3.50;99.90;;;;;;4178213;28;20442;-67
2023/03/28 05:59:12;;;;;;;6.13;2.83;;;3.50;99.90;;;;;;4173845;28;20059;-68
2023/03/28 06:01:16;;;;;;;6.63;2.70;;;3.50;99.90;;;;;;4178232;28;20025;-68
2023/03/28 06:03:17;;;;;;;7.00;2.72;;;3.50;99.90;;;;;;4154967;28;20504;-67
2023/03/28 06:05:18;;;;;;;6.13;2.40;;;3.60;99.90;;;;;;4171239;28;20064;-67
2023/03/28 06:07:20;;;;;;;7.53;2.97;;;3.60;99.90;;;;;;4176544;28;20071;-67
2023/03/28 06:09:21;;;;;;;7.57;3.35;;;3.60;99.90;;;;;;4179928;28;20025;-66
2023/03/28 06:11:21;;;;;;;7.85;3.10;;;3.60;99.90;;;;;;4164291;28;20083;-68
2023/03/28 06:13:22;;;;;;;5.60;2.63;;;3.70;99.90;;;;;;4167655;28;20183;-69
2023/03/28 06:15:22;;;;;;;6.75;2.95;;;3.70;99.90;;;;;;4169811;28;20044;-68
2023/03/28 06:17:24;;;;;;;7.78;3.22;;;3.70;99.90;;;;;;4166448;28;20037;-68
2023/03/28 06:19:25;;;;;;;10.55;3.80;;;3.70;99.90;;;;;;4166349;28;20045;-69
2023/03/28 06:21:25;;;;;;;8.40;3.53;;;3.80;99.90;;;;;;4162719;28;20033;-69
2023/03/28 06:23:26;;;;;;;12.32;4.18;;;3.80;99.90;;;;;;4163120;28;20034;-69
2023/03/28 06:25:27;;;;;;;8.07;3.95;;;3.80;99.90;;;;;;4167312;28;20114;-69
2023/03/28 06:27:28;;;;;;;9.18;3.47;;;3.90;99.90;;;;;;4168292;28;20088;-69
2023/03/28 06:29:28;;;;;;;9.70;3.83;;;4.00;99.90;;;;;;4168564;28;20067;-70
2023/03/28 06:31:29;;;;;;;9.43;4.00;;;4.10;99.90;;;;;;4164067;28;20037;-69
2023/03/28 06:33:30;;;;;;;11.15;3.53;;;4.30;99.90;;;;;;4170212;28;20029;-69
2023/03/28 06:35:31;;;;;;;12.45;3.75;;;4.50;99.90;;;;;;4164722;28;20039;-70
2023/03/28 06:37:32;;;;;;;12.75;5.43;;;4.70;99.90;;;;;;4173486;28;20396;-70
2023/03/28 06:39:32;;;;;;;10.50;4.60;;;5.00;99.90;;;;;;4178677;28;20029;-70
2023/03/28 06:41:33;;;;;;;6.88;3.35;;;5.20;99.90;;;;;;4174522;28;20053;-70
2023/03/28 06:43:34;;;;;;;9.27;4.13;;;5.50;99.90;;;;;;4179668;28;20033;-69
2023/03/28 06:45:35;;;;;;;14.73;4.00;;;5.70;99.90;;;;;;4168193;28;20086;-70
2023/03/28 06:47:36;;;;;;;7.82;3.30;;;5.90;99.90;;;;;;4169522;28;20035;-70
2023/03/28 06:49:36;;;;;;;8.88;3.22;;;6.20;99.90;;;;;;4171224;28;20032;-69
2023/03/28 06:51:37;;;;;;;11.00;3.80;;;6.50;99.90;;;;;;4167185;28;20040;-70
2023/03/28 06:53:38;;;;;;;8.70;3.60;;;6.70;99.90;;;;;;4168945;28;20029;-70
2023/03/28 06:55:38;;;;;;;8.75;3.33;;;6.90;99.90;;;;;;4169148;28;20068;-70
2023/03/28 06:57:39;;;;;;;8.13;3.92;;;7.20;99.90;;;;;;4165669;28;20057;-70
2023/03/28 06:59:40;;;;;;;10.20;3.30;;;7.40;99.90;;;;;;4161200;28;20052;-71
2023/03/28 07:01:41;;;;;;;10.88;3.50;;;7.60;99.90;;;;;;4174020;28;20059;-71
2023/03/28 07:03:42;;;;;;;9.13;3.65;;;7.70;99.90;;;;;;4168103;28;20037;-70
2023/03/28 07:05:42;;;;;;;8.52;3.72;;;7.90;99.90;;;;;;4166042;28;20038;-70
2023/03/28 07:07:43;;;;;;;7.45;3.15;;;8.00;99.90;;;;;;4164510;28;20482;-71
2023/03/28 07:09:43;;;;;;;7.85;2.75;;;8.20;99.90;;;;;;4167315;28;20385;-71
2023/03/28 07:11:44;;;;;;;9.40;3.17;;;8.30;99.90;;;;;;4166508;28;20034;-71
2023/03/28 07:13:45;;;;;;;10.43;4.22;;;8.50;99.90;;;;;;4166509;28;20476;-70
2023/03/28 07:15:45;;;;;;;9.02;3.63;;;8.60;99.90;;;;;;4169178;28;20071;-71
2023/03/28 07:17:46;;;;;;;8.32;3.80;;;8.70;99.90;;;;;;4168777;28;20383;-71
2023/03/28 07:19:49;;;;;;;7.50;3.28;;;8.90;99.90;;;;;;4168085;28;20029;-71
2023/03/28 07:21:51;;;;;;;7.10;3.42;;;8.90;99.90;;;;;;4160982;28;20485;-72
2023/03/28 07:23:52;;;;;;;8.53;3.37;;;9.10;99.90;;;;;;4184144;28;20043;-71
2023/03/28 07:25:52;;;;;;;8.32;3.53;;;9.20;99.90;;;;;;4173783;28;20275;-70
2023/03/28 07:27:53;;;;;;;9.30;3.53;;;9.30;99.90;;;;;;4171328;28;20037;-71
2023/03/28 07:29:53;;;;;;;7.85;3.20;;;9.50;99.90;;;;;;4173472;28;20038;-71
2023/03/28 07:31:54;;;;;;;7.03;3.45;;;9.70;99.90;;;;;;4179625;28;20021;-71
2023/03/28 07:33:58;;;;;;;6.55;3.08;;;9.80;99.90;;;;;;4177154;28;20091;-72
2023/03/28 07:35:59;;;;;;;8.00;3.00;;;9.90;99.90;;;;;;4174540;28;20509;-71
2023/03/28 07:38:00;;;;;;;4.68;2.70;;;10.10;99.90;;;;;;4184360;28;20072;-73
2023/03/28 07:40:00;;;;;;;10.18;3.67;;;10.20;99.90;;;;;;4188487;28;20075;-71
2023/03/28 07:42:01;;;;;;;6.22;2.95;;;10.40;99.90;;;;;;4193816;28;20044;-72
2023/03/28 07:44:01;;;;;;;12.30;3.58;;;10.50;99.90;;;;;;4191532;28;20028;-71
2023/03/28 07:46:05;;;;;;;6.95;3.10;;;10.60;99.90;;;;;;4186857;28;20036;-72
2023/03/28 07:48:06;;;;;;;4.20;2.40;;;10.70;99.90;;;;;;4189879;28;20075;-72
2023/03/28 07:50:08;;;;;;;6.72;2.75;;;10.90;99.90;;;;;;4187679;28;20411;-72
2023/03/28 07:52:08;;;;;;;5.60;2.40;;;11.10;99.90;;;;;;4159852;28;20418;-71
2023/03/28 07:54:16;;;;;;;5.60;2.53;;;11.20;99.90;;;;;;4183536;28;20048;-71
2023/03/28 07:56:16;;;;;;;5.75;2.92;;;11.30;99.90;;;;;;4185398;28;20032;-72
2023/03/28 07:58:17;;;;;;;8.73;3.25;;;11.40;99.90;;;;;;4190093;28;20432;-72
2023/03/28 08:00:21;;;;;;;4.63;2.63;;;11.50;99.90;;;;;;4180940;28;20029;-72
2023/03/28 08:02:21;;;;;;;7.75;3.00;;;11.50;99.90;;;;;;4179233;28;20033;-72
2023/03/28 08:04:22;;;;;;;7.65;3.03;;;11.40;99.90;;;;;;4172452;28;20108;-72
2023/03/28 08:06:24;;;;;;;8.20;2.97;;;11.40;99.90;;;;;;4169198;28;20034;-69
2023/03/28 08:08:24;;;;;;;7.85;3.00;;;11.40;99.90;;;;;;4171662;28;20059;-71
2023/03/28 08:10:25;;;;;;;5.75;2.78;;;11.30;99.90;;;;;;4180108;28;20487;-72
2023/03/28 08:12:27;;;;;;;7.22;2.92;;;11.30;99.90;;;;;;4178629;28;20061;-72
2023/03/28 08:14:28;;;;;;;10.25;2.88;;;11.30;99.90;;;;;;4177127;28;20045;-73
2023/03/28 08:16:29;;;;;;;7.55;2.70;;;11.10;99.90;;;;;;4187227;28;20353;-71
2023/03/28 08:18:29;;;;;;;6.50;2.92;;;10.90;99.90;;;;;;4187585;28;20056;-72
2023/03/28 08:20:32;;;;;;;6.80;2.83;;;10.90;99.90;;;;;;4183404;28;20031;-73
2023/03/28 08:22:32;;;;;;;7.22;2.95;;;10.90;99.90;;;;;;4167005;28;20079;-74
2023/03/28 08:24:33;;;;;;;13.25;3.75;;;10.90;99.90;;;;;;4193915;28;20028;-76
2023/03/28 08:26:33;;;;;;;9.57;3.33;;;10.90;99.90;;;;;;4186927;28;20102;-74
2023/03/28 08:28:36;;;;;;;4.93;2.60;;;10.90;99.90;;;;;;4165918;28;20420;-74
2023/03/28 08:30:36;;;;;;;9.85;3.08;;;10.90;99.90;;;;;;4170408;28;20384;-74
2023/03/28 08:32:37;;;;;;;7.22;3.22;;;10.80;99.90;;;;;;4176643;28;20028;-75
2023/03/28 08:34:39;;;;;;;8.00;2.83;;;10.80;99.90;;;;;;4172593;28;20377;-74
2023/03/28 08:36:40;;;;;;;8.10;2.85;;;10.80;99.90;;;;;;4168703;28;20037;-74
2023/03/28 08:38:41;;;;;;;7.10;2.63;;;10.80;99.90;;;;;;4179231;28;20484;-73
2023/03/28 08:41:09;;;;;;;9.57;2.70;;;10.70;99.90;;;;;;4172906;28;20035;-74
2023/03/28 08:43:41;;;;;;;8.63;2.42;;;10.50;99.90;;;;;;4171745;28;20547;-73
2023/03/28 08:45:49;;;;;;;6.97;2.35;;;10.40;99.90;;;;;;4167139;28;20492;-74
2023/03/28 08:48:07;;;;;;;7.32;2.22;;;10.40;99.90;;;;;;4173333;28;20468;-73
2023/03/28 08:50:24;;;;;;;7.47;2.65;;;10.40;99.90;;;;;;4172788;28;20028;-73
2023/03/28 08:52:25;;;;;;;10.93;2.97;;;10.40;99.90;;;;;;4170659;28;20150;-73
2023/03/28 08:54:57;;;;;;;7.78;2.67;;;10.40;99.90;;;;;;4186461;28;20033;-73
2023/03/28 08:57:02;;;;;;;6.50;2.22;;;10.40;99.90;;;;;;4180548;28;20045;-73
2023/03/28 08:59:07;;;;;;;7.32;2.88;;;10.50;99.90;;;;;;4180446;28;20040;-73
2023/03/28 09:01:09;;;;;;;10.32;2.85;;;10.50;99.90;;;;;;4178396;28;20475;-74
2023/03/28 09:03:15;;;;;;;9.43;2.75;;;10.50;99.90;;;;;;4188293;28;20028;-73
2023/03/28 09:05:39;;;;;;;5.07;2.28;;;10.50;99.90;;;;;;4188921;28;20158;-73
2023/03/28 09:07:55;;;;;;;9.23;2.05;;;10.60;99.90;;;;;;4168410;28;20037;-72
2023/03/28 09:10:21;;;;;;;7.75;2.15;;;10.50;99.90;;;;;;4168915;28;20026;-72
2023/03/28 09:12:29;;;;;;;2.92;1.50;;;10.40;99.90;;;;;;4189966;28;20062;-73
2023/03/28 09:15:00;;;;;;;8.25;2.17;;;10.40;99.90;;;;;;4189708;28;20419;-73
2023/03/28 09:17:09;;;;;;;7.53;2.10;;;10.10;99.90;;;;;;4167754;28;20484;-73
2023/03/28 09:19:20;;;;;;;5.78;1.95;;;9.90;99.90;;;;;;4187605;28;20061;-71
2023/03/28 09:21:37;;;;;;;7.05;2.15;;;9.90;99.90;;;;;;4187519;28;20079;-73
2023/03/28 09:24:02;;;;;;;5.95;2.45;;;9.80;99.90;;;;;;4172457;28;20083;-72
2023/03/28 09:26:11;;;;;;;6.20;2.03;;;9.70;99.90;;;;;;4169198;28;20045;-72
2023/03/28 09:28:35;;;;;;;9.05;2.30;;;9.80;99.90;;;;;;4179640;28;20029;-72
2023/03/28 09:30:43;;;;;;;5.15;1.65;;;9.80;99.90;;;;;;4180662;28;20060;-72
2023/03/28 09:32:45;;;;;;;2.97;1.40;;;9.60;99.90;;;;;;4184718;28;20699;-72
2023/03/28 09:34:49;;;;;;;5.78;1.50;;;9.60;99.90;;;;;;4187319;28;20128;-72
2023/03/28 09:36:53;;;;;;;8.25;2.40;;;9.60;99.90;;;;;;4189548;28;20045;-72
2023/03/28 09:39:05;;;;;;;4.38;1.77;;;9.60;99.90;;;;;;4179847;28;20061;-71
2023/03/28 09:41:17;;;;;;;5.82;2.08;;;9.60;99.90;;;;;;4183361;28;20041;-72
2023/03/28 09:43:27;;;;;;;6.65;1.85;;;9.60;99.90;;;;;;4182955;28;20025;-72
2023/03/28 09:46:01;;;;;;;11.38;2.45;;;9.50;99.90;;;;;;4189131;28;20086;-72
2023/03/28 09:48:04;;;;;;;8.07;2.45;;;9.50;99.90;;;;;;4170063;28;20021;-73
2023/03/28 09:50:10;;;;;;;6.90;1.90;;;9.40;99.90;;;;;;4172967;28;20021;-75
2023/03/28 09:52:17;;;;;;;5.43;1.50;;;9.50;99.90;;;;;;4168479;28;20034;-74
2023/03/28 09:54:39;;;;;;;7.60;2.33;;;9.50;99.90;;;;;;4168121;28;20095;-74
2023/03/28 09:56:45;;;;;;;6.53;1.88;;;9.50;99.90;;;;;;4175068;28;20506;-68
2023/03/28 09:58:48;;;;;;;6.82;1.80;;;9.50;99.90;;;;;;4162973;28;20473;-76
2023/03/28 10:00:51;;;;;;;9.77;2.00;;;9.50;99.90;;;;;;4172936;28;20079;-76
2023/03/28 10:02:52;;;;;;;3.17;1.63;;;9.50;99.90;;;;;;4176525;28;20052;-76
2023/03/28 10:04:53;;;;;;;9.57;2.00;;;9.50;99.90;;;;;;4168027;28;20025;-76
2023/03/28 10:07:16;;;;;;;4.43;1.30;;;9.50;99.90;;;;;;4168571;28;20144;-69
2023/03/28 10:09:22;;;;;;;4.90;1.50;;;9.60;99.90;;;;;;4166328;28;20480;-75
2023/03/28 10:11:23;;;;;;;6.63;1.58;;;9.60;99.90;;;;;;4190284;28;20025;-75
2023/03/28 10:13:23;;;;;;;7.63;1.50;;;9.70;99.90;;;;;;4191266;28;20483;-75
2023/03/28 10:15:44;;;;;;;3.97;1.40;;;9.70;99.90;;;;;;4178522;28;20048;-69
2023/03/28 10:17:44;;;;;;;6.97;2.22;;;9.50;99.90;;;;;;4184497;28;20783;-76
2023/03/28 10:19:46;;;;;;;4.38;1.50;;;9.40;99.90;;;;;;4185676;28;20041;-75
2023/03/28 10:21:48;;;;;;;8.43;1.92;;;9.40;99.90;;;;;;4187339;28;20480;-76
2023/03/28 10:24:11;;;;;;;3.05;1.55;;;9.50;99.90;;;;;;4189935;28;20028;-76
2023/03/28 10:26:20;;;;;;;5.95;1.67;;;9.60;99.90;;;;;;4175214;28;20039;-74
2023/03/28 10:28:31;;;;;;;5.97;1.83;;;9.60;99.90;;;;;;4175545;28;20369;-75
2023/03/28 10:30:34;;;;;;;5.80;1.90;;;9.60;99.90;;;;;;4186007;28;20036;-75
2023/03/28 10:32:35;;;;;;;5.78;1.60;;;9.60;99.90;;;;;;4184273;28;20029;-75
2023/03/28 10:34:36;;;;;;;4.43;1.50;;;9.60;99.90;;;;;;4186448;28;20392;-76
2023/03/28 10:36:43;;;;;;;4.13;1.52;;;9.60;99.90;;;;;;4186712;28;20556;-75
2023/03/28 10:38:47;;;;;;;7.38;1.45;;;9.60;99.90;;;;;;4183776;28;20094;-75
2023/03/28 10:41:00;;;;;;;5.90;1.67;;;9.60;99.90;;;;;;4187948;28;20024;-75
2023/03/28 10:43:01;;;;;;;5.18;1.40;;;9.50;99.90;;;;;;4178439;28;20038;-75
2023/03/28 10:45:02;;;;;;;6.95;1.45;;;9.60;99.90;;;;;;4151963;28;20091;-75
2023/03/28 10:47:09;;;;;;;5.22;1.60;;;9.60;99.90;;;;;;4167092;28;20033;-75
2023/03/28 10:49:14;;;;;;;4.97;1.70;;;9.60;99.90;;;;;;4171442;28;20507;-76
2023/03/28 10:51:20;;;;;;;4.88;1.50;;;9.60;99.90;;;;;;4167063;28;20357;-75
2023/03/28 10:53:48;;;;;;;8.13;1.92;;;9.60;99.90;;;;;;4177036;28;20045;-75
2023/03/28 10:56:22;;;;;;;8.13;1.75;;;9.60;99.90;;;;;;4174186;28;20028;-75
2023/03/28 10:58:24;;;;;;;5.20;1.60;;;9.70;99.90;;;;;;4170902;28;20059;-75